Master — WCY6528 — position and weather

sailwx.info

Track history (hours):
 
Tides and Currents Weather Stations Pressure Air Temp Water Temp Dewpoint Dewpoint Depression Visibility Wind Speed Wind Dir Waves Ship Positions

Master

Owner: Crowley Marine Services, SEATTLE, WA. More information available from US FCC via Universal Licensing System and Coast Guard Vessel Documentation Center.

Last reported at 2018-May-27 03:00 UTC. Time now 2018-May-27 03:09 UTC.
Position N 33°43' W 118°16'.

Length 30 m; draft 5.3 m.

Type: Tug. MMSI: 366755010.

Date/timePositionNaut miles runAvg speedWind from/ knotsBaromVisibWave heightAir tempDewpointWater temp
2018-May-27 03:00N 33°43' W 118°16'1 2.2
2018-May-27 02:30N 33°44' W 118°15'0 0.2
2018-May-27 02:00N 33°44' W 118°15'1 1.3
2018-May-27 01:30N 33°44' W 118°16'2 4.1
2018-May-27 01:00N 33°44' W 118°13'1 1.6
2018-May-27 00:30N 33°45' W 118°13'0 0.0
2018-May-27 00:00N 33°45' W 118°13'0 0.1
2018-May-26 23:30N 33°45' W 118°13'0 0.6
2018-May-26 23:00N 33°45' W 118°13'0 0.5
2018-May-26 22:30N 33°45' W 118°12'2 3.7
2018-May-26 22:00N 33°43' W 118°11'1 1.8
2018-May-26 21:30N 33°44' W 118°12'3 6.3
2018-May-26 21:00N 33°43' W 118°16'2 3.2
2018-May-26 20:30N 33°44' W 118°17'0 0.0
2018-May-26 20:00N 33°44' W 118°17'0 0.0
2018-May-26 19:30N 33°44' W 118°17'0 0.0
2018-May-26 19:00N 33°44' W 118°17'0 0.0
2018-May-26 18:30N 33°44' W 118°17'0 0.0
2018-May-26 18:00N 33°44' W 118°17'0 0.0
2018-May-26 17:30N 33°44' W 118°17'0 0.0
2018-May-26 17:00N 33°44' W 118°17'3 5.1
2018-May-26 16:30N 33°43' W 118°14'3 6.1
2018-May-26 16:00N 33°46' W 118°13'0 0.0
2018-May-26 15:30N 33°46' W 118°13'0 0.0
2018-May-26 15:00N 33°46' W 118°13'0 0.1
2018-May-26 14:30N 33°46' W 118°13'0 0.4
2018-May-26 14:00N 33°46' W 118°13'1 2.9
2018-May-26 13:30N 33°45' W 118°13'2 4.1
2018-May-26 13:00N 33°44' W 118°11'0 0.4
2018-May-26 12:29N 33°44' W 118°11'2 3.2
2018-May-26 12:00N 33°44' W 118°12'2 4.0
2018-May-26 11:30N 33°46' W 118°13'0 0.4
2018-May-26 11:00N 33°46' W 118°13'0 0.6
2018-May-26 10:30N 33°46' W 118°13'3 5.8
2018-May-26 10:00N 33°43' W 118°14'3 5.1
2018-May-26 09:30N 33°44' W 118°17'0 0.0
2018-May-26 09:00N 33°44' W 118°17'0 0.2
2018-May-26 08:30N 33°44' W 118°17'0 0.2
2018-May-26 08:00N 33°44' W 118°17'0 0.0
2018-May-26 07:30N 33°44' W 118°17'0 0.0
2018-May-26 07:00N 33°44' W 118°17'0 0.0
2018-May-26 06:30N 33°44' W 118°17'0 0.0
2018-May-26 05:30N 33°44' W 118°17'0 0.1
2018-May-26 05:00N 33°44' W 118°17'0 0.1
2018-May-26 04:30N 33°44' W 118°17'0 0.0
2018-May-26 04:00N 33°44' W 118°17'0 0.0
2018-May-26 03:29N 33°44' W 118°17'0 0.0
2018-May-26 03:00N 33°44' W 118°17'0 0.0
2018-May-26 02:30N 33°44' W 118°17'0 0.0
2018-May-26 02:00N 33°44' W 118°17'0 0.0
2018-May-26 01:30N 33°44' W 118°17'0 0.0
2018-May-26 01:00N 33°44' W 118°17'0 0.0
2018-May-26 00:30N 33°44' W 118°17'0 0.0
2018-May-26 00:00N 33°44' W 118°17'0 0.0
2018-May-25 23:30N 33°44' W 118°17'0 0.0
2018-May-25 23:00N 33°44' W 118°17'0 0.0
2018-May-25 22:30N 33°44' W 118°17'0 0.0
2018-May-25 22:00N 33°44' W 118°17'0 0.0
2018-May-25 21:30N 33°44' W 118°17'0 0.0
2018-May-25 21:00N 33°44' W 118°17'0 0.0
2018-May-25 20:30N 33°44' W 118°17'0 0.0
2018-May-25 19:59N 33°44' W 118°17'0 0.0
2018-May-25 19:31N 33°44' W 118°17'2 4.8
2018-May-25 19:00N 33°43' W 118°14'3 5.2
2018-May-25 18:30N 33°45' W 118°13'0 0.0
2018-May-25 18:00N 33°45' W 118°13'0 0.2
2018-May-25 17:31N 33°45' W 118°13'1 2.5
2018-May-25 17:00N 33°44' W 118°12'3 6.1
2018-May-25 16:30N 33°42' W 118°10'0 0.9
2018-May-25 16:00N 33°42' W 118°10'4 8.8
2018-May-25 15:30N 33°43' W 118°15'2 5.0
2018-May-25 15:00N 33°44' W 118°17'0 0.0
2018-May-25 14:30N 33°44' W 118°17'0 0.0
2018-May-25 14:00N 33°44' W 118°17'0 0.0
2018-May-25 13:30N 33°44' W 118°17'0 0.0
2018-May-25 13:00N 33°44' W 118°17'0 0.0
2018-May-25 12:30N 33°44' W 118°17'0 0.0
2018-May-25 12:00N 33°44' W 118°17'0 0.0
2018-May-25 11:30N 33°44' W 118°17'0 0.0
2018-May-25 11:00N 33°44' W 118°17'0 0.0
2018-May-25 10:30N 33°44' W 118°17'0 0.0
2018-May-25 10:00N 33°44' W 118°17'0 0.0
2018-May-25 09:30N 33°44' W 118°17'0 0.0
2018-May-25 09:00N 33°44' W 118°17'0 0.0
2018-May-25 08:30N 33°44' W 118°17'0 0.0
2018-May-25 08:00N 33°44' W 118°17'0 0.0
2018-May-25 07:30N 33°44' W 118°17'0 0.0
2018-May-25 07:00N 33°44' W 118°17'0 0.0
2018-May-25 06:30N 33°44' W 118°17'0 0.0
2018-May-25 06:00N 33°44' W 118°17'0 0.0
2018-May-25 05:30N 33°44' W 118°17'0 0.0
2018-May-25 05:00N 33°44' W 118°17'0 0.0
2018-May-25 04:30N 33°44' W 118°17'0 0.0
2018-May-25 04:00N 33°44' W 118°17'0 0.0
2018-May-25 03:30N 33°44' W 118°17'0 0.0
2018-May-25 02:59N 33°44' W 118°17'0 0.7
2018-May-25 02:30N 33°44' W 118°17'3 5.3
2018-May-25 02:00N 33°44' W 118°13'1 2.3
2018-May-25 01:30N 33°45' W 118°14'0 0.3
2018-May-25 01:00N 33°45' W 118°14'0 0.0
2018-May-25 00:30N 33°45' W 118°14'2 3.7
2018-May-25 00:01N 33°43' W 118°14'3 5.3
2018-May-24 23:30N 33°44' W 118°17'0 0.0
2018-May-24 23:00N 33°44' W 118°17'0 0.0
2018-May-24 22:30N 33°44' W 118°17'0 0.0
2018-May-24 22:00N 33°44' W 118°17'0 0.0
2018-May-24 21:30N 33°44' W 118°17'0 0.0
2018-May-24 21:00N 33°44' W 118°17'0 0.0
2018-May-24 20:29N 33°44' W 118°17'0 0.0
2018-May-24 20:00N 33°44' W 118°17'0 0.0
2018-May-24 19:29N 33°44' W 118°17'0 0.0
2018-May-24 19:00N 33°44' W 118°17'0 0.0
2018-May-24 18:30N 33°44' W 118°17'0 0.0
2018-May-24 18:00N 33°44' W 118°17'0 0.0
2018-May-24 17:29N 33°44' W 118°17'0 0.0
2018-May-24 17:00N 33°44' W 118°17'0 0.0
2018-May-24 16:30N 33°44' W 118°17'0 0.0
2018-May-24 16:00N 33°44' W 118°17'1 2.0
2018-May-24 15:30N 33°44' W 118°16'1 1.1
2018-May-24 15:00N 33°44' W 118°16'0 0.9
2018-May-24 14:30N 33°43' W 118°16'1 2.7
2018-May-24 14:00N 33°44' W 118°17'0 0.0
2018-May-24 13:30N 33°44' W 118°17'3 0.7
2018-May-24 09:00N 33°44' W 118°13'0 0.4
2018-May-24 08:30N 33°44' W 118°13'0 0.1
2018-May-24 08:00N 33°44' W 118°13'1 2.9
2018-May-24 07:30N 33°43' W 118°14'3 5.1
2018-May-24 07:00N 33°44' W 118°17'0 0.0
2018-May-24 06:30N 33°44' W 118°17'0 0.0
2018-May-24 06:00N 33°44' W 118°17'0 0.0
2018-May-24 05:30N 33°44' W 118°17'0 0.0
2018-May-24 05:00N 33°44' W 118°17'0 0.0
2018-May-24 04:30N 33°44' W 118°17'0 0.0
2018-May-24 04:00N 33°44' W 118°17'0 0.0
2018-May-24 03:30N 33°44' W 118°17'0 0.0
2018-May-24 03:00N 33°44' W 118°17'0 0.0
2018-May-24 02:30N 33°44' W 118°17'0 0.0
2018-May-24 02:00N 33°44' W 118°17'0 0.0
2018-May-24 01:30N 33°44' W 118°17'0 0.0
2018-May-24 01:00N 33°44' W 118°17'0 0.0
2018-May-24 00:30N 33°44' W 118°17'0 0.0
2018-May-24 00:00N 33°44' W 118°17'1 2.5
2018-May-23 23:30N 33°43' W 118°16'3 6.8
2018-May-23 23:01N 33°45' W 118°12'0 0.1
2018-May-23 22:30N 33°45' W 118°12'1 2.4
2018-May-23 22:00N 33°44' W 118°12'2 4.0
2018-May-23 21:30N 33°44' W 118°09'1 1.6
2018-May-23 21:00N 33°44' W 118°10'3 5.2
2018-May-23 20:30N 33°45' W 118°13'0 0.8
2018-May-23 20:00N 33°45' W 118°13'1 1.8
2018-May-23 19:30N 33°46' W 118°13'0 0.0
2018-May-23 19:00N 33°46' W 118°13'0 0.0
2018-May-23 18:30N 33°46' W 118°13'1 2.3
2018-May-23 18:00N 33°45' W 118°13'2 4.9
2018-May-23 17:30N 33°44' W 118°11'0 0.4
2018-May-23 17:00N 33°44' W 118°11'2 3.6
2018-May-23 16:29N 33°43' W 118°13'3 5.9
2018-May-23 16:00N 33°43' W 118°16'1 2.6
2018-May-23 15:30N 33°44' W 118°17'0 0.0
2018-May-23 15:00N 33°44' W 118°17'0 0.0
2018-May-23 14:30N 33°44' W 118°17'0 0.0
2018-May-23 14:00N 33°44' W 118°17'2 4.2
2018-May-23 13:30N 33°46' W 118°15'1 1.2
2018-May-23 13:01N 33°46' W 118°16'2 3.4
2018-May-23 12:30N 33°44' W 118°16'2 3.8
2018-May-23 11:59N 33°43' W 118°15'1 1.3
2018-May-23 11:30N 33°43' W 118°15'2 3.8
2018-May-23 11:00N 33°44' W 118°17'0 0.0
2018-May-23 10:30N 33°44' W 118°17'0 0.0
2018-May-23 10:00N 33°44' W 118°17'0 0.0
2018-May-23 09:30N 33°44' W 118°17'1 2.3
2018-May-23 09:00N 33°43' W 118°16'1 1.1
2018-May-23 08:30N 33°44' W 118°16'1 2.4
2018-May-23 08:00N 33°43' W 118°15'1 2.7
2018-May-23 07:30N 33°43' W 118°16'1 2.4
2018-May-23 07:00N 33°44' W 118°17'0 0.0
2018-May-23 06:30N 33°44' W 118°17'0 0.0
2018-May-23 06:00N 33°44' W 118°17'0 0.0
2018-May-23 05:30N 33°44' W 118°17'0 0.0
2018-May-23 05:00N 33°44' W 118°17'0 0.0
2018-May-23 04:30N 33°44' W 118°17'0 0.0
2018-May-23 04:00N 33°44' W 118°17'0 0.0
2018-May-23 03:30N 33°44' W 118°17'0 0.0
2018-May-23 03:00N 33°44' W 118°17'0 0.0
2018-May-23 02:30N 33°44' W 118°17'0 0.0
2018-May-23 02:00N 33°44' W 118°17'0 0.0
2018-May-23 01:30N 33°44' W 118°17'0 0.0
2018-May-23 01:00N 33°44' W 118°17'0 0.0
2018-May-23 00:30N 33°44' W 118°17'0 0.0
2018-May-23 00:00N 33°44' W 118°17'0 0.0
2018-May-22 23:30N 33°44' W 118°17'0 0.0
2018-May-22 23:00N 33°44' W 118°17'0 0.0
2018-May-22 22:30N 33°44' W 118°17'0 0.0
2018-May-22 22:00N 33°44' W 118°17'0 0.0
2018-May-22 21:30N 33°44' W 118°17'0 0.0
2018-May-22 21:00N 33°44' W 118°17'0 0.0
2018-May-22 20:30N 33°44' W 118°17'0 0.0
2018-May-22 20:00N 33°44' W 118°17'0 0.0
2018-May-22 19:30N 33°44' W 118°17'0 0.0
2018-May-22 18:59N 33°44' W 118°17'0 0.0
2018-May-22 18:30N 33°44' W 118°17'0 0.0
2018-May-22 18:00N 33°44' W 118°17'0 0.0
2018-May-22 17:30N 33°44' W 118°17'0 0.0
2018-May-22 17:00N 33°44' W 118°17'3 5.1
2018-May-22 16:30N 33°43' W 118°14'2 4.3
2018-May-22 16:00N 33°45' W 118°12'0 0.0
2018-May-22 15:30N 33°45' W 118°12'1 1.6
2018-May-22 15:00N 33°44' W 118°12'2 3.6
2018-May-22 14:30N 33°44' W 118°10'0 0.0
2018-May-22 14:00N 33°44' W 118°10'0 0.1
2018-May-22 13:30N 33°44' W 118°10'0 0.1
2018-May-22 12:59N 33°44' W 118°10'0 0.0
2018-May-22 12:30N 33°44' W 118°10'1 2.4
2018-May-22 12:00N 33°44' W 118°12'3 6.6
2018-May-22 11:30N 33°43' W 118°16'1 2.2
2018-May-22 11:00N 33°44' W 118°15'1 1.7
2018-May-22 10:30N 33°44' W 118°16'1 2.7
2018-May-22 10:00N 33°43' W 118°14'2 3.3
2018-May-22 09:30N 33°43' W 118°16'1 2.0
2018-May-22 09:00N 33°44' W 118°17'0 0.1
2018-May-22 08:30N 33°44' W 118°17'0 0.1
2018-May-22 08:00N 33°44' W 118°17'0 0.0
2018-May-22 07:30N 33°44' W 118°17'0 0.0
2018-May-22 07:00N 33°44' W 118°17'0 0.0
2018-May-22 06:30N 33°44' W 118°17'0 0.0
2018-May-22 06:00N 33°44' W 118°17'0 0.0
2018-May-22 05:29N 33°44' W 118°17'0 0.0
2018-May-22 05:00N 33°44' W 118°17'0 0.0
2018-May-22 04:30N 33°44' W 118°17'0 0.0
2018-May-22 04:00N 33°44' W 118°17'0 0.7
2018-May-22 03:30N 33°44' W 118°17'3 5.3
2018-May-22 03:00N 33°44' W 118°13'1 2.2
2018-May-22 02:30N 33°45' W 118°14'0 0.2
2018-May-22 02:00N 33°45' W 118°14'0 0.0
2018-May-22 01:30N 33°45' W 118°14'0 0.0
2018-May-22 01:00N 33°45' W 118°14'1 2.0
2018-May-22 00:31N 33°45' W 118°13'1 2.9
2018-May-22 00:00N 33°46' W 118°14'0 0.1
2018-May-21 23:30N 33°46' W 118°14'1 2.7
2018-May-21 23:00N 33°45' W 118°13'1 2.5
2018-May-21 22:30N 33°46' W 118°13'0 0.2
2018-May-21 22:00N 33°46' W 118°13'0 0.1
2018-May-21 21:30N 33°46' W 118°13'3 6.2
2018-May-21 21:00N 33°43' W 118°14'3 5.1
2018-May-21 20:30N 33°44' W 118°17'0 0.0
2018-May-21 20:00N 33°44' W 118°17'0 0.0
2018-May-21 19:30N 33°44' W 118°17'0 0.0
2018-May-21 19:00N 33°44' W 118°17'0 0.0
2018-May-21 18:30N 33°44' W 118°17'0 0.0
2018-May-21 18:00N 33°44' W 118°17'0 0.0
2018-May-21 17:30N 33°44' W 118°17'0 0.0
2018-May-21 17:00N 33°44' W 118°17'0 0.0
2018-May-21 16:30N 33°44' W 118°17'0 0.0
2018-May-21 16:00N 33°44' W 118°17'0 0.0
2018-May-21 15:30N 33°44' W 118°17'0 0.0
2018-May-21 15:00N 33°44' W 118°17'0 0.0
2018-May-21 14:30N 33°44' W 118°17'0 0.0
2018-May-21 14:00N 33°44' W 118°17'0 0.0
2018-May-21 13:30N 33°44' W 118°17'0 0.0
2018-May-21 13:00N 33°44' W 118°17'0 0.0
2018-May-21 12:30N 33°44' W 118°17'0 0.0
2018-May-21 12:00N 33°44' W 118°17'0 0.0
2018-May-21 11:30N 33°44' W 118°17'0 0.0
2018-May-21 11:00N 33°44' W 118°17'0 0.0
2018-May-21 10:30N 33°44' W 118°17'0 0.0
2018-May-21 10:00N 33°44' W 118°17'0 0.0
2018-May-21 09:30N 33°44' W 118°17'0 0.0
2018-May-21 09:00N 33°44' W 118°17'0 0.0
2018-May-21 08:30N 33°44' W 118°17'0 0.0
2018-May-21 08:00N 33°44' W 118°17'0 0.0
2018-May-21 07:30N 33°44' W 118°17'0 0.0
2018-May-21 07:00N 33°44' W 118°17'0 0.0
2018-May-21 06:30N 33°44' W 118°17'0 0.0
2018-May-21 06:00N 33°44' W 118°17'0 0.0
2018-May-21 05:30N 33°44' W 118°17'0 0.0
2018-May-21 05:00N 33°44' W 118°17'0 0.0
2018-May-21 04:30N 33°44' W 118°17'0 0.0
2018-May-21 04:00N 33°44' W 118°17'0 0.0
2018-May-21 03:30N 33°44' W 118°17'0 0.0
2018-May-21 03:00N 33°44' W 118°17'0 0.0
2018-May-21 02:29N 33°44' W 118°17'0 0.0
2018-May-21 02:00N 33°44' W 118°17'0 0.0
2018-May-21 01:30N 33°44' W 118°17'0 0.0
2018-May-21 01:00N 33°44' W 118°17'2 4.4
2018-May-21 00:30N 33°43' W 118°15'3 5.5
2018-May-21 00:00N 33°45' W 118°12'0 0.6
2018-May-20 23:31N 33°44' W 118°12'2 3.3
2018-May-20 23:00N 33°44' W 118°10'1 1.0
2018-May-20 22:30N 33°44' W 118°10'0 0.8
2018-May-20 22:00N 33°44' W 118°10'2 4.9
2018-May-20 21:30N 33°45' W 118°13'0 0.0
2018-May-20 21:00N 33°45' W 118°13'0 0.4
2018-May-20 20:31N 33°45' W 118°13'1 2.8
2018-May-20 20:00N 33°44' W 118°11'0 0.7
2018-May-20 19:30N 33°44' W 118°11'0 0.5
2018-May-20 19:00N 33°44' W 118°11'1 1.8
2018-May-20 18:30N 33°44' W 118°12'2 4.5
2018-May-20 18:00N 33°43' W 118°14'3 5.0
2018-May-20 17:30N 33°44' W 118°17'0 0.0
2018-May-20 17:00N 33°44' W 118°17'0 0.0
2018-May-20 16:30N 33°44' W 118°17'0 0.0
2018-May-20 16:00N 33°44' W 118°17'0 0.0
2018-May-20 15:30N 33°44' W 118°17'0 0.8
2018-May-20 15:00N 33°44' W 118°17'2 3.2
2018-May-20 14:30N 33°45' W 118°16'1 2.2
2018-May-20 14:00N 33°46' W 118°15'1 1.0
2018-May-20 13:30N 33°46' W 118°15'2 4.5
2018-May-20 13:00N 33°44' W 118°16'1 1.9
2018-May-20 12:30N 33°44' W 118°15'0 0.1
2018-May-20 12:00N 33°44' W 118°15'0 0.3
2018-May-20 11:31N 33°44' W 118°15'1 2.6
2018-May-20 11:00N 33°44' W 118°14'1 2.6
2018-May-20 10:29N 33°45' W 118°13'0 0.0
2018-May-20 10:00N 33°45' W 118°13'0 0.0
2018-May-20 09:30N 33°45' W 118°13'0 0.0
2018-May-20 09:00N 33°45' W 118°13'0 0.0
2018-May-20 08:30N 33°45' W 118°13'0 0.0
2018-May-20 08:00N 33°45' W 118°13'0 0.0
2018-May-20 07:29N 33°45' W 118°13'0 0.0
2018-May-20 07:00N 33°45' W 118°13'0 0.4
2018-May-20 06:30N 33°45' W 118°13'0 0.9
2018-May-20 06:00N 33°45' W 118°12'1 1.2
2018-May-20 05:30N 33°44' W 118°12'3 6.6
2018-May-20 05:00N 33°44' W 118°16'1 1.4
2018-May-20 04:30N 33°44' W 118°17'0 0.0
2018-May-20 04:00N 33°44' W 118°17'0 0.0
2018-May-20 03:30N 33°44' W 118°17'0 0.0
2018-May-20 03:00N 33°44' W 118°17'0 0.0
2018-May-20 02:30N 33°44' W 118°17'0 0.0
2018-May-20 02:00N 33°44' W 118°17'0 0.0
2018-May-20 01:30N 33°44' W 118°17'0 0.0
2018-May-20 01:00N 33°44' W 118°17'0 0.0
2018-May-20 00:30N 33°44' W 118°17'0 0.0
2018-May-19 23:58N 33°44' W 118°17'0 0.0
2018-May-19 23:30N 33°44' W 118°17'0 0.0
2018-May-19 23:00N 33°44' W 118°17'0 0.0
2018-May-19 22:30N 33°44' W 118°17'0 0.0
2018-May-19 22:00N 33°44' W 118°17'0 0.0
2018-May-19 21:30N 33°44' W 118°17'2 4.8
2018-May-19 21:00N 33°43' W 118°14'3 7.0
2018-May-19 20:30N 33°46' W 118°13'0 0.0
2018-May-19 20:00N 33°46' W 118°13'0 0.0
2018-May-19 19:29N 33°46' W 118°13'0 0.0
2018-May-19 19:00N 33°46' W 118°13'0 0.9
2018-May-19 18:30N 33°46' W 118°13'1 3.0
2018-May-19 18:00N 33°44' W 118°13'1 2.7
2018-May-19 17:30N 33°44' W 118°12'1 2.3
2018-May-19 17:00N 33°44' W 118°13'1 2.0
2018-May-19 16:30N 33°45' W 118°13'0 0.0
2018-May-19 16:00N 33°45' W 118°13'0 0.0
2018-May-19 15:30N 33°45' W 118°13'1 2.1
2018-May-19 15:00N 33°46' W 118°13'0 0.1
2018-May-19 14:30N 33°46' W 118°13'0 0.0
2018-May-19 14:00N 33°46' W 118°13'0 0.7
2018-May-19 13:30N 33°46' W 118°13'2 4.1
2018-May-19 13:00N 33°44' W 118°12'1 2.6
2018-May-19 12:30N 33°44' W 118°11'2 4.9
2018-May-19 12:00N 33°43' W 118°14'3 5.6
2018-May-19 11:30N 33°45' W 118°16'2 4.1
2018-May-19 11:00N 33°46' W 118°14'0 0.0
2018-May-19 10:30N 33°46' W 118°14'1 1.0
2018-May-19 10:00N 33°46' W 118°15'2 4.1
2018-May-19 09:30N 33°44' W 118°17'3 6.5
2018-May-19 09:00N 33°42' W 118°14'2 3.3
2018-May-19 08:30N 33°42' W 118°12'4 7.2
2018-May-19 08:00N 33°43' W 118°16'1 2.0
2018-May-19 07:30N 33°44' W 118°17'0 0.1
2018-May-19 07:00N 33°44' W 118°17'0 0.0
2018-May-19 06:30N 33°44' W 118°17'0 0.0
2018-May-19 06:00N 33°44' W 118°17'0 0.0
2018-May-19 05:30N 33°44' W 118°17'0 0.0
2018-May-19 05:00N 33°44' W 118°17'0 0.0
2018-May-19 04:30N 33°44' W 118°17'0 0.0
2018-May-19 04:00N 33°44' W 118°17'0 0.0
2018-May-19 03:30N 33°44' W 118°17'0 0.0
2018-May-19 03:00N 33°44' W 118°17'2 3.0
2018-May-19 02:30N 33°43' W 118°16'3 6.0
2018-May-19 02:01N 33°45' W 118°13'1 2.0
2018-May-19 01:30N 33°46' W 118°13'0 0.2
2018-May-19 01:00N 33°46' W 118°13'0 0.0
2018-May-19 00:30N 33°46' W 118°13'0 0.0
2018-May-19 00:00N 33°46' W 118°13'0 0.0
2018-May-18 23:30N 33°46' W 118°13'1 1.9
2018-May-18 23:00N 33°46' W 118°14'1 2.0
2018-May-18 22:30N 33°45' W 118°13'2 4.7
2018-May-18 22:00N 33°44' W 118°11'0 0.4
2018-May-18 21:30N 33°44' W 118°12'4 7.2
2018-May-18 20:59N 33°43' W 118°16'1 3.0
2018-May-18 20:30N 33°44' W 118°17'0 0.0
2018-May-18 20:00N 33°44' W 118°17'0 0.0
2018-May-18 19:30N 33°44' W 118°17'0 0.0
2018-May-18 19:00N 33°44' W 118°17'0 0.0
2018-May-18 18:30N 33°44' W 118°17'0 0.0
2018-May-18 18:00N 33°44' W 118°17'0 0.0
2018-May-18 17:30N 33°44' W 118°17'0 0.0
2018-May-18 17:00N 33°44' W 118°17'0 0.0
2018-May-18 16:30N 33°44' W 118°17'0 0.0
2018-May-18 16:00N 33°44' W 118°17'0 0.0
2018-May-18 15:30N 33°44' W 118°17'0 0.0
2018-May-18 15:00N 33°44' W 118°17'0 0.0
2018-May-18 14:29N 33°44' W 118°17'0 0.0
2018-May-18 14:00N 33°44' W 118°17'0 0.0
2018-May-18 13:30N 33°44' W 118°17'0 0.0
2018-May-18 13:00N 33°44' W 118°17'0 0.0
2018-May-18 12:30N 33°44' W 118°17'0 0.0
2018-May-18 12:00N 33°44' W 118°17'0 0.0
2018-May-18 11:30N 33°44' W 118°17'0 0.0
2018-May-18 11:00N 33°44' W 118°17'0 0.0
2018-May-18 10:30N 33°44' W 118°17'0 0.0
2018-May-18 10:00N 33°44' W 118°17'0 0.0
2018-May-18 09:30N 33°44' W 118°17'0 0.0
2018-May-18 09:00N 33°44' W 118°17'0 0.0
2018-May-18 08:30N 33°44' W 118°17'0 0.0
2018-May-18 08:00N 33°44' W 118°17'0 0.0
2018-May-18 07:30N 33°44' W 118°17'1 1.2
2018-May-18 07:01N 33°45' W 118°16'1 1.1
2018-May-18 06:30N 33°45' W 118°17'0 0.5
2018-May-18 06:00N 33°45' W 118°17'2 4.8
2018-May-18 05:30N 33°43' W 118°16'1 2.2
2018-May-18 05:00N 33°43' W 118°15'1 2.7
2018-May-18 04:30N 33°44' W 118°14'1 2.9
2018-May-18 04:00N 33°45' W 118°13'0 0.0
2018-May-18 03:30N 33°45' W 118°13'0 0.0
2018-May-18 03:00N 33°45' W 118°13'0 0.8
2018-May-18 02:30N 33°45' W 118°13'0 0.0
2018-May-18 01:58N 33°45' W 118°13'0 0.0
2018-May-18 01:30N 33°45' W 118°13'0 0.6
2018-May-18 01:00N 33°45' W 118°13'2 4.4
2018-May-18 00:31N 33°43' W 118°11'0 0.6
2018-May-18 00:00N 33°44' W 118°12'0 0.6
2018-May-17 23:30N 33°44' W 118°12'1 1.2
2018-May-17 23:00N 33°44' W 118°13'1 2.3
2018-May-17 22:30N 33°45' W 118°13'0 1.0
2018-May-17 22:00N 33°46' W 118°13'0 0.1
2018-May-17 21:30N 33°46' W 118°13'1 2.7
2018-May-17 21:00N 33°44' W 118°13'3 5.5
2018-May-17 20:30N 33°44' W 118°17'0 0.4
2018-May-17 20:00N 33°44' W 118°17'0 0.0
2018-May-17 19:30N 33°44' W 118°17'0 0.0
2018-May-17 19:00N 33°44' W 118°17'0 0.0
2018-May-17 18:30N 33°44' W 118°17'0 0.0
2018-May-17 18:00N 33°44' W 118°17'0 0.8
2018-May-17 17:30N 33°44' W 118°16'0 0.2
2018-May-17 17:00N 33°44' W 118°16'1 2.9
2018-May-17 16:30N 33°45' W 118°17'0 0.0
2018-May-17 16:00N 33°45' W 118°17'1 1.1
2018-May-17 15:31N 33°45' W 118°16'1 1.4
2018-May-17 15:00N 33°44' W 118°17'0 0.0
2018-May-17 14:30N 33°44' W 118°17'0 0.0
2018-May-17 14:00N 33°44' W 118°17'0 0.0
2018-May-17 13:30N 33°44' W 118°17'0 0.0
2018-May-17 13:00N 33°44' W 118°17'0 0.0
2018-May-17 12:30N 33°44' W 118°17'1 2.5
2018-May-17 12:00N 33°43' W 118°16'3 5.4
2018-May-17 11:30N 33°45' W 118°13'1 1.2
2018-May-17 11:00N 33°45' W 118°14'1 2.4
2018-May-17 10:30N 33°45' W 118°13'2 3.1
2018-May-17 10:00N 33°44' W 118°11'0 0.5
2018-May-17 09:30N 33°44' W 118°12'3 5.8
2018-May-17 09:00N 33°43' W 118°15'2 4.2
2018-May-17 08:30N 33°44' W 118°17'0 0.0
2018-May-17 08:00N 33°44' W 118°17'0 0.0
2018-May-17 07:30N 33°44' W 118°17'0 0.0
2018-May-17 07:00N 33°44' W 118°17'0 0.0
2018-May-17 06:30N 33°44' W 118°17'0 0.0
2018-May-17 06:00N 33°44' W 118°17'0 0.1
2018-May-17 05:30N 33°44' W 118°17'0 0.1
2018-May-17 05:00N 33°44' W 118°17'0 0.0
2018-May-17 04:30N 33°44' W 118°17'0 0.0
2018-May-17 04:00N 33°44' W 118°17'0 0.0
2018-May-17 03:30N 33°44' W 118°17'0 0.0
2018-May-17 03:00N 33°44' W 118°17'  
Track history (hours):
 
Tides and Currents Weather Stations Pressure Air Temp Water Temp Dewpoint Dewpoint Depression Visibility Wind Speed Wind Dir Waves Ship Positions

Master

Owner: Crowley Marine Services, SEATTLE, WA. More information available from US FCC via Universal Licensing System and Coast Guard Vessel Documentation Center.

Last reported at 2018-May-27 03:00 UTC. Time now 2018-May-27 03:09 UTC.
Position N 33°43' W 118°16'.

Length 30 m; draft 5.3 m.

Type: Tug. MMSI: 366755010.

Date/timePositionNaut miles runAvg speedWind from/ knotsBaromVisibWave heightAir tempDewpointWater temp
2018-May-27 03:00N 33°43' W 118°16'1 2.2
2018-May-27 02:30N 33°44' W 118°15'0 0.2
2018-May-27 02:00N 33°44' W 118°15'1 1.3
2018-May-27 01:30N 33°44' W 118°16'2 4.1
2018-May-27 01:00N 33°44' W 118°13'1 1.6
2018-May-27 00:30N 33°45' W 118°13'0 0.0
2018-May-27 00:00N 33°45' W 118°13'0 0.1
2018-May-26 23:30N 33°45' W 118°13'0 0.6
2018-May-26 23:00N 33°45' W 118°13'0 0.5
2018-May-26 22:30N 33°45' W 118°12'2 3.7
2018-May-26 22:00N 33°43' W 118°11'1 1.8
2018-May-26 21:30N 33°44' W 118°12'3 6.3
2018-May-26 21:00N 33°43' W 118°16'2 3.2
2018-May-26 20:30N 33°44' W 118°17'0 0.0
2018-May-26 20:00N 33°44' W 118°17'0 0.0
2018-May-26 19:30N 33°44' W 118°17'0 0.0
2018-May-26 19:00N 33°44' W 118°17'0 0.0
2018-May-26 18:30N 33°44' W 118°17'0 0.0
2018-May-26 18:00N 33°44' W 118°17'0 0.0
2018-May-26 17:30N 33°44' W 118°17'0 0.0
2018-May-26 17:00N 33°44' W 118°17'3 5.1
2018-May-26 16:30N 33°43' W 118°14'3 6.1
2018-May-26 16:00N 33°46' W 118°13'0 0.0
2018-May-26 15:30N 33°46' W 118°13'0 0.0
2018-May-26 15:00N 33°46' W 118°13'0 0.1
2018-May-26 14:30N 33°46' W 118°13'0 0.4
2018-May-26 14:00N 33°46' W 118°13'1 2.9
2018-May-26 13:30N 33°45' W 118°13'2 4.1
2018-May-26 13:00N 33°44' W 118°11'0 0.4
2018-May-26 12:29N 33°44' W 118°11'2 3.2
2018-May-26 12:00N 33°44' W 118°12'2 4.0
2018-May-26 11:30N 33°46' W 118°13'0 0.4
2018-May-26 11:00N 33°46' W 118°13'0 0.6
2018-May-26 10:30N 33°46' W 118°13'3 5.8
2018-May-26 10:00N 33°43' W 118°14'3 5.1
2018-May-26 09:30N 33°44' W 118°17'0 0.0
2018-May-26 09:00N 33°44' W 118°17'0 0.2
2018-May-26 08:30N 33°44' W 118°17'0 0.2
2018-May-26 08:00N 33°44' W 118°17'0 0.0
2018-May-26 07:30N 33°44' W 118°17'0 0.0
2018-May-26 07:00N 33°44' W 118°17'0 0.0
2018-May-26 06:30N 33°44' W 118°17'0 0.0
2018-May-26 05:30N 33°44' W 118°17'0 0.1
2018-May-26 05:00N 33°44' W 118°17'0 0.1
2018-May-26 04:30N 33°44' W 118°17'0 0.0
2018-May-26 04:00N 33°44' W 118°17'0 0.0
2018-May-26 03:29N 33°44' W 118°17'0 0.0
2018-May-26 03:00N 33°44' W 118°17'0 0.0
2018-May-26 02:30N 33°44' W 118°17'0 0.0
2018-May-26 02:00N 33°44' W 118°17'0 0.0
2018-May-26 01:30N 33°44' W 118°17'0 0.0
2018-May-26 01:00N 33°44' W 118°17'0 0.0
2018-May-26 00:30N 33°44' W 118°17'0 0.0
2018-May-26 00:00N 33°44' W 118°17'0 0.0
2018-May-25 23:30N 33°44' W 118°17'0 0.0
2018-May-25 23:00N 33°44' W 118°17'0 0.0
2018-May-25 22:30N 33°44' W 118°17'0 0.0
2018-May-25 22:00N 33°44' W 118°17'0 0.0
2018-May-25 21:30N 33°44' W 118°17'0 0.0
2018-May-25 21:00N 33°44' W 118°17'0 0.0
2018-May-25 20:30N 33°44' W 118°17'0 0.0
2018-May-25 19:59N 33°44' W 118°17'0 0.0
2018-May-25 19:31N 33°44' W 118°17'2 4.8
2018-May-25 19:00N 33°43' W 118°14'3 5.2
2018-May-25 18:30N 33°45' W 118°13'0 0.0
2018-May-25 18:00N 33°45' W 118°13'0 0.2
2018-May-25 17:31N 33°45' W 118°13'1 2.5
2018-May-25 17:00N 33°44' W 118°12'3 6.1
2018-May-25 16:30N 33°42' W 118°10'0 0.9
2018-May-25 16:00N 33°42' W 118°10'4 8.8
2018-May-25 15:30N 33°43' W 118°15'2 5.0
2018-May-25 15:00N 33°44' W 118°17'0 0.0
2018-May-25 14:30N 33°44' W 118°17'0 0.0
2018-May-25 14:00N 33°44' W 118°17'0 0.0
2018-May-25 13:30N 33°44' W 118°17'0 0.0
2018-May-25 13:00N 33°44' W 118°17'0 0.0
2018-May-25 12:30N 33°44' W 118°17'0 0.0
2018-May-25 12:00N 33°44' W 118°17'0 0.0
2018-May-25 11:30N 33°44' W 118°17'0 0.0
2018-May-25 11:00N 33°44' W 118°17'0 0.0
2018-May-25 10:30N 33°44' W 118°17'0 0.0
2018-May-25 10:00N 33°44' W 118°17'0 0.0
2018-May-25 09:30N 33°44' W 118°17'0 0.0
2018-May-25 09:00N 33°44' W 118°17'0 0.0
2018-May-25 08:30N 33°44' W 118°17'0 0.0
2018-May-25 08:00N 33°44' W 118°17'0 0.0
2018-May-25 07:30N 33°44' W 118°17'0 0.0
2018-May-25 07:00N 33°44' W 118°17'0 0.0
2018-May-25 06:30N 33°44' W 118°17'0 0.0
2018-May-25 06:00N 33°44' W 118°17'0 0.0
2018-May-25 05:30N 33°44' W 118°17'0 0.0
2018-May-25 05:00N 33°44' W 118°17'0 0.0
2018-May-25 04:30N 33°44' W 118°17'0 0.0
2018-May-25 04:00N 33°44' W 118°17'0 0.0
2018-May-25 03:30N 33°44' W 118°17'0 0.0
2018-May-25 02:59N 33°44' W 118°17'0 0.7
2018-May-25 02:30N 33°44' W 118°17'3 5.3
2018-May-25 02:00N 33°44' W 118°13'1 2.3
2018-May-25 01:30N 33°45' W 118°14'0 0.3
2018-May-25 01:00N 33°45' W 118°14'0 0.0
2018-May-25 00:30N 33°45' W 118°14'2 3.7
2018-May-25 00:01N 33°43' W 118°14'3 5.3
2018-May-24 23:30N 33°44' W 118°17'0 0.0
2018-May-24 23:00N 33°44' W 118°17'0 0.0
2018-May-24 22:30N 33°44' W 118°17'0 0.0
2018-May-24 22:00N 33°44' W 118°17'0 0.0
2018-May-24 21:30N 33°44' W 118°17'0 0.0
2018-May-24 21:00N 33°44' W 118°17'0 0.0
2018-May-24 20:29N 33°44' W 118°17'0 0.0
2018-May-24 20:00N 33°44' W 118°17'0 0.0
2018-May-24 19:29N 33°44' W 118°17'0 0.0
2018-May-24 19:00N 33°44' W 118°17'0 0.0
2018-May-24 18:30N 33°44' W 118°17'0 0.0
2018-May-24 18:00N 33°44' W 118°17'0 0.0
2018-May-24 17:29N 33°44' W 118°17'0 0.0
2018-May-24 17:00N 33°44' W 118°17'0 0.0
2018-May-24 16:30N 33°44' W 118°17'0 0.0
2018-May-24 16:00N 33°44' W 118°17'1 2.0
2018-May-24 15:30N 33°44' W 118°16'1 1.1
2018-May-24 15:00N 33°44' W 118°16'0 0.9
2018-May-24 14:30N 33°43' W 118°16'1 2.7
2018-May-24 14:00N 33°44' W 118°17'0 0.0
2018-May-24 13:30N 33°44' W 118°17'3 0.7
2018-May-24 09:00N 33°44' W 118°13'0 0.4
2018-May-24 08:30N 33°44' W 118°13'0 0.1
2018-May-24 08:00N 33°44' W 118°13'1 2.9
2018-May-24 07:30N 33°43' W 118°14'3 5.1
2018-May-24 07:00N 33°44' W 118°17'0 0.0
2018-May-24 06:30N 33°44' W 118°17'0 0.0
2018-May-24 06:00N 33°44' W 118°17'0 0.0
2018-May-24 05:30N 33°44' W 118°17'0 0.0
2018-May-24 05:00N 33°44' W 118°17'0 0.0
2018-May-24 04:30N 33°44' W 118°17'0 0.0
2018-May-24 04:00N 33°44' W 118°17'0 0.0
2018-May-24 03:30N 33°44' W 118°17'0 0.0
2018-May-24 03:00N 33°44' W 118°17'0 0.0
2018-May-24 02:30N 33°44' W 118°17'0 0.0
2018-May-24 02:00N 33°44' W 118°17'0 0.0
2018-May-24 01:30N 33°44' W 118°17'0 0.0
2018-May-24 01:00N 33°44' W 118°17'0 0.0
2018-May-24 00:30N 33°44' W 118°17'0 0.0
2018-May-24 00:00N 33°44' W 118°17'1 2.5
2018-May-23 23:30N 33°43' W 118°16'3 6.8
2018-May-23 23:01N 33°45' W 118°12'0 0.1
2018-May-23 22:30N 33°45' W 118°12'1 2.4
2018-May-23 22:00N 33°44' W 118°12'2 4.0
2018-May-23 21:30N 33°44' W 118°09'1 1.6
2018-May-23 21:00N 33°44' W 118°10'3 5.2
2018-May-23 20:30N 33°45' W 118°13'0 0.8
2018-May-23 20:00N 33°45' W 118°13'1 1.8
2018-May-23 19:30N 33°46' W 118°13'0 0.0
2018-May-23 19:00N 33°46' W 118°13'0 0.0
2018-May-23 18:30N 33°46' W 118°13'1 2.3
2018-May-23 18:00N 33°45' W 118°13'2 4.9
2018-May-23 17:30N 33°44' W 118°11'0 0.4
2018-May-23 17:00N 33°44' W 118°11'2 3.6
2018-May-23 16:29N 33°43' W 118°13'3 5.9
2018-May-23 16:00N 33°43' W 118°16'1 2.6
2018-May-23 15:30N 33°44' W 118°17'0 0.0
2018-May-23 15:00N 33°44' W 118°17'0 0.0
2018-May-23 14:30N 33°44' W 118°17'0 0.0
2018-May-23 14:00N 33°44' W 118°17'2 4.2
2018-May-23 13:30N 33°46' W 118°15'1 1.2
2018-May-23 13:01N 33°46' W 118°16'2 3.4
2018-May-23 12:30N 33°44' W 118°16'2 3.8
2018-May-23 11:59N 33°43' W 118°15'1 1.3
2018-May-23 11:30N 33°43' W 118°15'2 3.8
2018-May-23 11:00N 33°44' W 118°17'0 0.0
2018-May-23 10:30N 33°44' W 118°17'0 0.0
2018-May-23 10:00N 33°44' W 118°17'0 0.0
2018-May-23 09:30N 33°44' W 118°17'1 2.3
2018-May-23 09:00N 33°43' W 118°16'1 1.1
2018-May-23 08:30N 33°44' W 118°16'1 2.4
2018-May-23 08:00N 33°43' W 118°15'1 2.7
2018-May-23 07:30N 33°43' W 118°16'1 2.4
2018-May-23 07:00N 33°44' W 118°17'0 0.0
2018-May-23 06:30N 33°44' W 118°17'0 0.0
2018-May-23 06:00N 33°44' W 118°17'0 0.0
2018-May-23 05:30N 33°44' W 118°17'0 0.0
2018-May-23 05:00N 33°44' W 118°17'0 0.0
2018-May-23 04:30N 33°44' W 118°17'0 0.0
2018-May-23 04:00N 33°44' W 118°17'0 0.0
2018-May-23 03:30N 33°44' W 118°17'0 0.0
2018-May-23 03:00N 33°44' W 118°17'0 0.0
2018-May-23 02:30N 33°44' W 118°17'0 0.0
2018-May-23 02:00N 33°44' W 118°17'0 0.0
2018-May-23 01:30N 33°44' W 118°17'0 0.0
2018-May-23 01:00N 33°44' W 118°17'0 0.0
2018-May-23 00:30N 33°44' W 118°17'0 0.0
2018-May-23 00:00N 33°44' W 118°17'0 0.0
2018-May-22 23:30N 33°44' W 118°17'0 0.0
2018-May-22 23:00N 33°44' W 118°17'0 0.0
2018-May-22 22:30N 33°44' W 118°17'0 0.0
2018-May-22 22:00N 33°44' W 118°17'0 0.0
2018-May-22 21:30N 33°44' W 118°17'0 0.0
2018-May-22 21:00N 33°44' W 118°17'0 0.0
2018-May-22 20:30N 33°44' W 118°17'0 0.0
2018-May-22 20:00N 33°44' W 118°17'0 0.0
2018-May-22 19:30N 33°44' W 118°17'0 0.0
2018-May-22 18:59N 33°44' W 118°17'0 0.0
2018-May-22 18:30N 33°44' W 118°17'0 0.0
2018-May-22 18:00N 33°44' W 118°17'0 0.0
2018-May-22 17:30N 33°44' W 118°17'0 0.0
2018-May-22 17:00N 33°44' W 118°17'3 5.1
2018-May-22 16:30N 33°43' W 118°14'2 4.3
2018-May-22 16:00N 33°45' W 118°12'0 0.0
2018-May-22 15:30N 33°45' W 118°12'1 1.6
2018-May-22 15:00N 33°44' W 118°12'2 3.6
2018-May-22 14:30N 33°44' W 118°10'0 0.0
2018-May-22 14:00N 33°44' W 118°10'0 0.1
2018-May-22 13:30N 33°44' W 118°10'0 0.1
2018-May-22 12:59N 33°44' W 118°10'0 0.0
2018-May-22 12:30N 33°44' W 118°10'1 2.4
2018-May-22 12:00N 33°44' W 118°12'3 6.6
2018-May-22 11:30N 33°43' W 118°16'1 2.2
2018-May-22 11:00N 33°44' W 118°15'1 1.7
2018-May-22 10:30N 33°44' W 118°16'1 2.7
2018-May-22 10:00N 33°43' W 118°14'2 3.3
2018-May-22 09:30N 33°43' W 118°16'1 2.0
2018-May-22 09:00N 33°44' W 118°17'0 0.1
2018-May-22 08:30N 33°44' W 118°17'0 0.1
2018-May-22 08:00N 33°44' W 118°17'0 0.0
2018-May-22 07:30N 33°44' W 118°17'0 0.0
2018-May-22 07:00N 33°44' W 118°17'0 0.0
2018-May-22 06:30N 33°44' W 118°17'0 0.0
2018-May-22 06:00N 33°44' W 118°17'0 0.0
2018-May-22 05:29N 33°44' W 118°17'0 0.0
2018-May-22 05:00N 33°44' W 118°17'0 0.0
2018-May-22 04:30N 33°44' W 118°17'0 0.0
2018-May-22 04:00N 33°44' W 118°17'0 0.7
2018-May-22 03:30N 33°44' W 118°17'3 5.3
2018-May-22 03:00N 33°44' W 118°13'1 2.2
2018-May-22 02:30N 33°45' W 118°14'0 0.2
2018-May-22 02:00N 33°45' W 118°14'0 0.0
2018-May-22 01:30N 33°45' W 118°14'0 0.0
2018-May-22 01:00N 33°45' W 118°14'1 2.0
2018-May-22 00:31N 33°45' W 118°13'1 2.9
2018-May-22 00:00N 33°46' W 118°14'0 0.1
2018-May-21 23:30N 33°46' W 118°14'1 2.7
2018-May-21 23:00N 33°45' W 118°13'1 2.5
2018-May-21 22:30N 33°46' W 118°13'0 0.2
2018-May-21 22:00N 33°46' W 118°13'0 0.1
2018-May-21 21:30N 33°46' W 118°13'3 6.2
2018-May-21 21:00N 33°43' W 118°14'3 5.1
2018-May-21 20:30N 33°44' W 118°17'0 0.0
2018-May-21 20:00N 33°44' W 118°17'0 0.0
2018-May-21 19:30N 33°44' W 118°17'0 0.0
2018-May-21 19:00N 33°44' W 118°17'0 0.0
2018-May-21 18:30N 33°44' W 118°17'0 0.0
2018-May-21 18:00N 33°44' W 118°17'0 0.0
2018-May-21 17:30N 33°44' W 118°17'0 0.0
2018-May-21 17:00N 33°44' W 118°17'0 0.0
2018-May-21 16:30N 33°44' W 118°17'0 0.0
2018-May-21 16:00N 33°44' W 118°17'0 0.0
2018-May-21 15:30N 33°44' W 118°17'0 0.0
2018-May-21 15:00N 33°44' W 118°17'0 0.0
2018-May-21 14:30N 33°44' W 118°17'0 0.0
2018-May-21 14:00N 33°44' W 118°17'0 0.0
2018-May-21 13:30N 33°44' W 118°17'0 0.0
2018-May-21 13:00N 33°44' W 118°17'0 0.0
2018-May-21 12:30N 33°44' W 118°17'0 0.0
2018-May-21 12:00N 33°44' W 118°17'0 0.0
2018-May-21 11:30N 33°44' W 118°17'0 0.0
2018-May-21 11:00N 33°44' W 118°17'0 0.0
2018-May-21 10:30N 33°44' W 118°17'0 0.0
2018-May-21 10:00N 33°44' W 118°17'0 0.0
2018-May-21 09:30N 33°44' W 118°17'0 0.0
2018-May-21 09:00N 33°44' W 118°17'0 0.0
2018-May-21 08:30N 33°44' W 118°17'0 0.0
2018-May-21 08:00N 33°44' W 118°17'0 0.0
2018-May-21 07:30N 33°44' W 118°17'0 0.0
2018-May-21 07:00N 33°44' W 118°17'0 0.0
2018-May-21 06:30N 33°44' W 118°17'0 0.0
2018-May-21 06:00N 33°44' W 118°17'0 0.0
2018-May-21 05:30N 33°44' W 118°17'0 0.0
2018-May-21 05:00N 33°44' W 118°17'0 0.0
2018-May-21 04:30N 33°44' W 118°17'0 0.0
2018-May-21 04:00N 33°44' W 118°17'0 0.0
2018-May-21 03:30N 33°44' W 118°17'0 0.0
2018-May-21 03:00N 33°44' W 118°17'0 0.0
2018-May-21 02:29N 33°44' W 118°17'0 0.0
2018-May-21 02:00N 33°44' W 118°17'0 0.0
2018-May-21 01:30N 33°44' W 118°17'0 0.0
2018-May-21 01:00N 33°44' W 118°17'2 4.4
2018-May-21 00:30N 33°43' W 118°15'3 5.5
2018-May-21 00:00N 33°45' W 118°12'0 0.6
2018-May-20 23:31N 33°44' W 118°12'2 3.3
2018-May-20 23:00N 33°44' W 118°10'1 1.0
2018-May-20 22:30N 33°44' W 118°10'0 0.8
2018-May-20 22:00N 33°44' W 118°10'2 4.9
2018-May-20 21:30N 33°45' W 118°13'0 0.0
2018-May-20 21:00N 33°45' W 118°13'0 0.4
2018-May-20 20:31N 33°45' W 118°13'1 2.8
2018-May-20 20:00N 33°44' W 118°11'0 0.7
2018-May-20 19:30N 33°44' W 118°11'0 0.5
2018-May-20 19:00N 33°44' W 118°11'1 1.8
2018-May-20 18:30N 33°44' W 118°12'2 4.5
2018-May-20 18:00N 33°43' W 118°14'3 5.0
2018-May-20 17:30N 33°44' W 118°17'0 0.0
2018-May-20 17:00N 33°44' W 118°17'0 0.0
2018-May-20 16:30N 33°44' W 118°17'0 0.0
2018-May-20 16:00N 33°44' W 118°17'0 0.0
2018-May-20 15:30N 33°44' W 118°17'0 0.8
2018-May-20 15:00N 33°44' W 118°17'2 3.2
2018-May-20 14:30N 33°45' W 118°16'1 2.2
2018-May-20 14:00N 33°46' W 118°15'1 1.0
2018-May-20 13:30N 33°46' W 118°15'2 4.5
2018-May-20 13:00N 33°44' W 118°16'1 1.9
2018-May-20 12:30N 33°44' W 118°15'0 0.1
2018-May-20 12:00N 33°44' W 118°15'0 0.3
2018-May-20 11:31N 33°44' W 118°15'1 2.6
2018-May-20 11:00N 33°44' W 118°14'1 2.6
2018-May-20 10:29N 33°45' W 118°13'0 0.0
2018-May-20 10:00N 33°45' W 118°13'0 0.0
2018-May-20 09:30N 33°45' W 118°13'0 0.0
2018-May-20 09:00N 33°45' W 118°13'0 0.0
2018-May-20 08:30N 33°45' W 118°13'0 0.0
2018-May-20 08:00N 33°45' W 118°13'0 0.0
2018-May-20 07:29N 33°45' W 118°13'0 0.0
2018-May-20 07:00N 33°45' W 118°13'0 0.4
2018-May-20 06:30N 33°45' W 118°13'0 0.9
2018-May-20 06:00N 33°45' W 118°12'1 1.2
2018-May-20 05:30N 33°44' W 118°12'3 6.6
2018-May-20 05:00N 33°44' W 118°16'1 1.4
2018-May-20 04:30N 33°44' W 118°17'0 0.0
2018-May-20 04:00N 33°44' W 118°17'0 0.0
2018-May-20 03:30N 33°44' W 118°17'0 0.0
2018-May-20 03:00N 33°44' W 118°17'0 0.0
2018-May-20 02:30N 33°44' W 118°17'0 0.0
2018-May-20 02:00N 33°44' W 118°17'0 0.0
2018-May-20 01:30N 33°44' W 118°17'0 0.0
2018-May-20 01:00N 33°44' W 118°17'0 0.0
2018-May-20 00:30N 33°44' W 118°17'0 0.0
2018-May-19 23:58N 33°44' W 118°17'0 0.0
2018-May-19 23:30N 33°44' W 118°17'0 0.0
2018-May-19 23:00N 33°44' W 118°17'0 0.0
2018-May-19 22:30N 33°44' W 118°17'0 0.0
2018-May-19 22:00N 33°44' W 118°17'0 0.0
2018-May-19 21:30N 33°44' W 118°17'2 4.8
2018-May-19 21:00N 33°43' W 118°14'3 7.0
2018-May-19 20:30N 33°46' W 118°13'0 0.0
2018-May-19 20:00N 33°46' W 118°13'0 0.0
2018-May-19 19:29N 33°46' W 118°13'0 0.0
2018-May-19 19:00N 33°46' W 118°13'0 0.9
2018-May-19 18:30N 33°46' W 118°13'1 3.0
2018-May-19 18:00N 33°44' W 118°13'1 2.7
2018-May-19 17:30N 33°44' W 118°12'1 2.3
2018-May-19 17:00N 33°44' W 118°13'1 2.0
2018-May-19 16:30N 33°45' W 118°13'0 0.0
2018-May-19 16:00N 33°45' W 118°13'0 0.0
2018-May-19 15:30N 33°45' W 118°13'1 2.1
2018-May-19 15:00N 33°46' W 118°13'0 0.1
2018-May-19 14:30N 33°46' W 118°13'0 0.0
2018-May-19 14:00N 33°46' W 118°13'0 0.7
2018-May-19 13:30N 33°46' W 118°13'2 4.1
2018-May-19 13:00N 33°44' W 118°12'1 2.6
2018-May-19 12:30N 33°44' W 118°11'2 4.9
2018-May-19 12:00N 33°43' W 118°14'3 5.6
2018-May-19 11:30N 33°45' W 118°16'2 4.1
2018-May-19 11:00N 33°46' W 118°14'0 0.0
2018-May-19 10:30N 33°46' W 118°14'1 1.0
2018-May-19 10:00N 33°46' W 118°15'2 4.1
2018-May-19 09:30N 33°44' W 118°17'3 6.5
2018-May-19 09:00N 33°42' W 118°14'2 3.3
2018-May-19 08:30N 33°42' W 118°12'4 7.2
2018-May-19 08:00N 33°43' W 118°16'1 2.0
2018-May-19 07:30N 33°44' W 118°17'0 0.1
2018-May-19 07:00N 33°44' W 118°17'0 0.0
2018-May-19 06:30N 33°44' W 118°17'0 0.0
2018-May-19 06:00N 33°44' W 118°17'0 0.0
2018-May-19 05:30N 33°44' W 118°17'0 0.0
2018-May-19 05:00N 33°44' W 118°17'0 0.0
2018-May-19 04:30N 33°44' W 118°17'0 0.0
2018-May-19 04:00N 33°44' W 118°17'0 0.0
2018-May-19 03:30N 33°44' W 118°17'0 0.0
2018-May-19 03:00N 33°44' W 118°17'2 3.0
2018-May-19 02:30N 33°43' W 118°16'3 6.0
2018-May-19 02:01N 33°45' W 118°13'1 2.0
2018-May-19 01:30N 33°46' W 118°13'0 0.2
2018-May-19 01:00N 33°46' W 118°13'0 0.0
2018-May-19 00:30N 33°46' W 118°13'0 0.0
2018-May-19 00:00N 33°46' W 118°13'0 0.0
2018-May-18 23:30N 33°46' W 118°13'1 1.9
2018-May-18 23:00N 33°46' W 118°14'1 2.0
2018-May-18 22:30N 33°45' W 118°13'2 4.7
2018-May-18 22:00N 33°44' W 118°11'0 0.4
2018-May-18 21:30N 33°44' W 118°12'4 7.2
2018-May-18 20:59N 33°43' W 118°16'1 3.0
2018-May-18 20:30N 33°44' W 118°17'0 0.0
2018-May-18 20:00N 33°44' W 118°17'0 0.0
2018-May-18 19:30N 33°44' W 118°17'0 0.0
2018-May-18 19:00N 33°44' W 118°17'0 0.0
2018-May-18 18:30N 33°44' W 118°17'0 0.0
2018-May-18 18:00N 33°44' W 118°17'0 0.0
2018-May-18 17:30N 33°44' W 118°17'0 0.0
2018-May-18 17:00N 33°44' W 118°17'0 0.0
2018-May-18 16:30N 33°44' W 118°17'0 0.0
2018-May-18 16:00N 33°44' W 118°17'0 0.0
2018-May-18 15:30N 33°44' W 118°17'0 0.0
2018-May-18 15:00N 33°44' W 118°17'0 0.0
2018-May-18 14:29N 33°44' W 118°17'0 0.0
2018-May-18 14:00N 33°44' W 118°17'0 0.0
2018-May-18 13:30N 33°44' W 118°17'0 0.0
2018-May-18 13:00N 33°44' W 118°17'0 0.0
2018-May-18 12:30N 33°44' W 118°17'0 0.0
2018-May-18 12:00N 33°44' W 118°17'0 0.0
2018-May-18 11:30N 33°44' W 118°17'0 0.0
2018-May-18 11:00N 33°44' W 118°17'0 0.0
2018-May-18 10:30N 33°44' W 118°17'0 0.0
2018-May-18 10:00N 33°44' W 118°17'0 0.0
2018-May-18 09:30N 33°44' W 118°17'0 0.0
2018-May-18 09:00N 33°44' W 118°17'0 0.0
2018-May-18 08:30N 33°44' W 118°17'0 0.0
2018-May-18 08:00N 33°44' W 118°17'0 0.0
2018-May-18 07:30N 33°44' W 118°17'1 1.2
2018-May-18 07:01N 33°45' W 118°16'1 1.1
2018-May-18 06:30N 33°45' W 118°17'0 0.5
2018-May-18 06:00N 33°45' W 118°17'2 4.8
2018-May-18 05:30N 33°43' W 118°16'1 2.2
2018-May-18 05:00N 33°43' W 118°15'1 2.7
2018-May-18 04:30N 33°44' W 118°14'1 2.9
2018-May-18 04:00N 33°45' W 118°13'0 0.0
2018-May-18 03:30N 33°45' W 118°13'0 0.0
2018-May-18 03:00N 33°45' W 118°13'0 0.8
2018-May-18 02:30N 33°45' W 118°13'0 0.0
2018-May-18 01:58N 33°45' W 118°13'0 0.0
2018-May-18 01:30N 33°45' W 118°13'0 0.6
2018-May-18 01:00N 33°45' W 118°13'2 4.4
2018-May-18 00:31N 33°43' W 118°11'0 0.6
2018-May-18 00:00N 33°44' W 118°12'0 0.6
2018-May-17 23:30N 33°44' W 118°12'1 1.2
2018-May-17 23:00N 33°44' W 118°13'1 2.3
2018-May-17 22:30N 33°45' W 118°13'0 1.0
2018-May-17 22:00N 33°46' W 118°13'0 0.1
2018-May-17 21:30N 33°46' W 118°13'1 2.7
2018-May-17 21:00N 33°44' W 118°13'3 5.5
2018-May-17 20:30N 33°44' W 118°17'0 0.4
2018-May-17 20:00N 33°44' W 118°17'0 0.0
2018-May-17 19:30N 33°44' W 118°17'0 0.0
2018-May-17 19:00N 33°44' W 118°17'0 0.0
2018-May-17 18:30N 33°44' W 118°17'0 0.0
2018-May-17 18:00N 33°44' W 118°17'0 0.8
2018-May-17 17:30N 33°44' W 118°16'0 0.2
2018-May-17 17:00N 33°44' W 118°16'1 2.9
2018-May-17 16:30N 33°45' W 118°17'0 0.0
2018-May-17 16:00N 33°45' W 118°17'1 1.1
2018-May-17 15:31N 33°45' W 118°16'1 1.4
2018-May-17 15:00N 33°44' W 118°17'0 0.0
2018-May-17 14:30N 33°44' W 118°17'0 0.0
2018-May-17 14:00N 33°44' W 118°17'0 0.0
2018-May-17 13:30N 33°44' W 118°17'0 0.0
2018-May-17 13:00N 33°44' W 118°17'0 0.0
2018-May-17 12:30N 33°44' W 118°17'1 2.5
2018-May-17 12:00N 33°43' W 118°16'3 5.4
2018-May-17 11:30N 33°45' W 118°13'1 1.2
2018-May-17 11:00N 33°45' W 118°14'1 2.4
2018-May-17 10:30N 33°45' W 118°13'2 3.1
2018-May-17 10:00N 33°44' W 118°11'0 0.5
2018-May-17 09:30N 33°44' W 118°12'3 5.8
2018-May-17 09:00N 33°43' W 118°15'2 4.2
2018-May-17 08:30N 33°44' W 118°17'0 0.0
2018-May-17 08:00N 33°44' W 118°17'0 0.0
2018-May-17 07:30N 33°44' W 118°17'0 0.0
2018-May-17 07:00N 33°44' W 118°17'0 0.0
2018-May-17 06:30N 33°44' W 118°17'0 0.0
2018-May-17 06:00N 33°44' W 118°17'0 0.1
2018-May-17 05:30N 33°44' W 118°17'0 0.1
2018-May-17 05:00N 33°44' W 118°17'0 0.0
2018-May-17 04:30N 33°44' W 118°17'0 0.0
2018-May-17 04:00N 33°44' W 118°17'0 0.0
2018-May-17 03:30N 33°44' W 118°17'0 0.0
2018-May-17 03:00N 33°44' W 118°17'  

Dump ship's entire track history